sensor_id;sensor_type;location;lat;lon;timestamp;temperature;humidity
18266;DHT22;9259;48.194;16.322;2022-07-29T00:00:30;22.10;99.90
18266;DHT22;9259;48.194;16.322;2022-07-29T00:02:58;22.10;99.90
18266;DHT22;9259;48.194;16.322;2022-07-29T00:05:25;22.10;99.90
18266;DHT22;9259;48.194;16.322;2022-07-29T00:07:54;22.10;99.90
18266;DHT22;9259;48.194;16.322;2022-07-29T00:10:23;22.00;99.90
18266;DHT22;9259;48.194;16.322;2022-07-29T00:12:51;22.10;99.90
18266;DHT22;9259;48.194;16.322;2022-07-29T00:15:19;22.10;99.90
18266;DHT22;9259;48.194;16.322;2022-07-29T00:17:47;22.10;99.90
18266;DHT22;9259;48.194;16.322;2022-07-29T00:20:15;22.10;99.90
18266;DHT22;9259;48.194;16.322;2022-07-29T00:22:43;22.00;99.90
18266;DHT22;9259;48.194;16.322;2022-07-29T00:25:12;22.00;99.90
18266;DHT22;9259;48.194;16.322;2022-07-29T00:27:41;22.00;99.90
18266;DHT22;9259;48.194;16.322;2022-07-29T00:30:10;22.00;99.90
18266;DHT22;9259;48.194;16.322;2022-07-29T00:32:38;22.00;99.90
18266;DHT22;9259;48.194;16.322;2022-07-29T00:35:07;22.00;99.90
18266;DHT22;9259;48.194;16.322;2022-07-29T00:37:53;21.90;99.90
18266;DHT22;9259;48.194;16.322;2022-07-29T00:40:21;21.90;99.90
18266;DHT22;9259;48.194;16.322;2022-07-29T00:42:51;21.80;99.90
18266;DHT22;9259;48.194;16.322;2022-07-29T00:45:19;21.80;99.90
18266;DHT22;9259;48.194;16.322;2022-07-29T00:47:51;21.80;99.90
18266;DHT22;9259;48.194;16.322;2022-07-29T00:50:19;21.80;99.90
18266;DHT22;9259;48.194;16.322;2022-07-29T00:52:47;21.80;99.90
18266;DHT22;9259;48.194;16.322;2022-07-29T00:55:15;21.80;99.90
18266;DHT22;9259;48.194;16.322;2022-07-29T00:57:45;21.70;99.90
18266;DHT22;9259;48.194;16.322;2022-07-29T01:00:17;21.80;99.90
18266;DHT22;9259;48.194;16.322;2022-07-29T01:02:48;21.70;99.90
18266;DHT22;9259;48.194;16.322;2022-07-29T01:05:18;21.70;99.90
18266;DHT22;9259;48.194;16.322;2022-07-29T01:07:49;21.60;99.90
18266;DHT22;9259;48.194;16.322;2022-07-29T01:10:20;21.60;99.90
18266;DHT22;9259;48.194;16.322;2022-07-29T01:12:50;21.60;99.90
18266;DHT22;9259;48.194;16.322;2022-07-29T01:15:23;21.50;99.90
18266;DHT22;9259;48.194;16.322;2022-07-29T01:17:57;21.40;99.90
18266;DHT22;9259;48.194;16.322;2022-07-29T01:20:39;21.50;99.90
18266;DHT22;9259;48.194;16.322;2022-07-29T01:23:51;21.50;99.90
18266;DHT22;9259;48.194;16.322;2022-07-29T01:26:45;21.40;99.90
18266;DHT22;9259;48.194;16.322;2022-07-29T01:29:23;21.40;99.90
18266;DHT22;9259;48.194;16.322;2022-07-29T01:31:56;21.40;99.90
18266;DHT22;9259;48.194;16.322;2022-07-29T01:34:31;21.30;99.90
18266;DHT22;9259;48.194;16.322;2022-07-29T01:37:08;21.30;99.90
18266;DHT22;9259;48.194;16.322;2022-07-29T01:39:39;21.30;99.90
18266;DHT22;9259;48.194;16.322;2022-07-29T01:42:14;21.30;99.90
18266;DHT22;9259;48.194;16.322;2022-07-29T01:44:52;21.40;99.90
18266;DHT22;9259;48.194;16.322;2022-07-29T01:47:26;21.40;99.90
18266;DHT22;9259;48.194;16.322;2022-07-29T01:50:00;21.30;99.90
18266;DHT22;9259;48.194;16.322;2022-07-29T01:52:33;21.30;99.90
18266;DHT22;9259;48.194;16.322;2022-07-29T01:55:06;21.30;99.90
18266;DHT22;9259;48.194;16.322;2022-07-29T01:57:39;21.30;99.90
18266;DHT22;9259;48.194;16.322;2022-07-29T02:00:11;21.30;99.90
18266;DHT22;9259;48.194;16.322;2022-07-29T02:02:42;21.30;99.90
18266;DHT22;9259;48.194;16.322;2022-07-29T02:05:15;21.20;99.90
18266;DHT22;9259;48.194;16.322;2022-07-29T02:07:47;21.10;99.90
18266;DHT22;9259;48.194;16.322;2022-07-29T02:10:20;21.00;99.90
18266;DHT22;9259;48.194;16.322;2022-07-29T02:12:50;21.10;99.90
18266;DHT22;9259;48.194;16.322;2022-07-29T02:15:21;21.10;99.90
18266;DHT22;9259;48.194;16.322;2022-07-29T02:17:55;21.10;99.90
18266;DHT22;9259;48.194;16.322;2022-07-29T02:20:26;21.00;99.90
18266;DHT22;9259;48.194;16.322;2022-07-29T02:22:55;21.00;99.90
18266;DHT22;9259;48.194;16.322;2022-07-29T02:25:25;21.00;99.90
18266;DHT22;9259;48.194;16.322;2022-07-29T02:27:54;21.00;99.90
18266;DHT22;9259;48.194;16.322;2022-07-29T02:30:24;20.80;99.90
18266;DHT22;9259;48.194;16.322;2022-07-29T02:32:53;20.70;99.90
18266;DHT22;9259;48.194;16.322;2022-07-29T02:35:22;20.70;99.90
18266;DHT22;9259;48.194;16.322;2022-07-29T02:37:51;20.60;99.90
18266;DHT22;9259;48.194;16.322;2022-07-29T02:40:34;20.60;99.90
18266;DHT22;9259;48.194;16.322;2022-07-29T02:43:06;20.60;99.90
18266;DHT22;9259;48.194;16.322;2022-07-29T02:45:36;20.60;99.90
18266;DHT22;9259;48.194;16.322;2022-07-29T02:48:10;20.50;99.90
18266;DHT22;9259;48.194;16.322;2022-07-29T02:50:46;20.50;99.90
18266;DHT22;9259;48.194;16.322;2022-07-29T02:53:23;20.50;99.90
18266;DHT22;9259;48.194;16.322;2022-07-29T02:55:56;20.50;99.90
18266;DHT22;9259;48.194;16.322;2022-07-29T02:58:28;20.60;99.90
18266;DHT22;9259;48.194;16.322;2022-07-29T03:01:02;20.60;99.90
18266;DHT22;9259;48.194;16.322;2022-07-29T03:03:36;20.60;99.90
18266;DHT22;9259;48.194;16.322;2022-07-29T03:06:06;20.60;99.90
18266;DHT22;9259;48.194;16.322;2022-07-29T03:08:35;20.60;99.90
18266;DHT22;9259;48.194;16.322;2022-07-29T03:11:03;20.50;99.90
18266;DHT22;9259;48.194;16.322;2022-07-29T03:13:32;20.40;99.90
18266;DHT22;9259;48.194;16.322;2022-07-29T03:16:01;20.30;99.90
18266;DHT22;9259;48.194;16.322;2022-07-29T03:18:30;20.30;99.90
18266;DHT22;9259;48.194;16.322;2022-07-29T03:20:58;20.30;99.90
18266;DHT22;9259;48.194;16.322;2022-07-29T03:23:26;20.30;99.90
18266;DHT22;9259;48.194;16.322;2022-07-29T03:25:56;20.30;99.90
18266;DHT22;9259;48.194;16.322;2022-07-29T03:28:25;20.30;99.90
18266;DHT22;9259;48.194;16.322;2022-07-29T03:30:54;20.30;99.90
18266;DHT22;9259;48.194;16.322;2022-07-29T03:33:23;20.30;99.90
18266;DHT22;9259;48.194;16.322;2022-07-29T03:35:51;20.20;99.90
18266;DHT22;9259;48.194;16.322;2022-07-29T03:38:19;20.20;99.90
18266;DHT22;9259;48.194;16.322;2022-07-29T03:40:53;20.20;99.90
18266;DHT22;9259;48.194;16.322;2022-07-29T03:43:25;20.30;99.90
18266;DHT22;9259;48.194;16.322;2022-07-29T03:45:55;20.30;99.90
18266;DHT22;9259;48.194;16.322;2022-07-29T03:48:26;20.30;99.90
18266;DHT22;9259;48.194;16.322;2022-07-29T03:50:55;20.20;99.90
18266;DHT22;9259;48.194;16.322;2022-07-29T03:53:29;20.20;99.90
18266;DHT22;9259;48.194;16.322;2022-07-29T03:55:59;20.20;99.90
18266;DHT22;9259;48.194;16.322;2022-07-29T03:58:30;20.10;99.90
18266;DHT22;9259;48.194;16.322;2022-07-29T04:01:01;20.00;99.90
18266;DHT22;9259;48.194;16.322;2022-07-29T04:03:31;20.00;99.90
18266;DHT22;9259;48.194;16.322;2022-07-29T04:06:00;20.00;99.90
18266;DHT22;9259;48.194;16.322;2022-07-29T04:08:29;20.00;99.90
18266;DHT22;9259;48.194;16.322;2022-07-29T04:10:57;20.00;99.90
18266;DHT22;9259;48.194;16.322;2022-07-29T04:13:25;20.00;99.90
18266;DHT22;9259;48.194;16.322;2022-07-29T04:15:52;20.10;99.90
18266;DHT22;9259;48.194;16.322;2022-07-29T04:18:20;20.10;99.90
18266;DHT22;9259;48.194;16.322;2022-07-29T04:20:50;20.10;99.90
18266;DHT22;9259;48.194;16.322;2022-07-29T04:23:21;20.10;99.90
18266;DHT22;9259;48.194;16.322;2022-07-29T04:25:49;20.10;99.90
18266;DHT22;9259;48.194;16.322;2022-07-29T04:28:17;20.10;99.90
18266;DHT22;9259;48.194;16.322;2022-07-29T04:30:45;20.20;99.90
18266;DHT22;9259;48.194;16.322;2022-07-29T04:33:12;20.30;99.90
18266;DHT22;9259;48.194;16.322;2022-07-29T04:35:41;20.50;99.90
18266;DHT22;9259;48.194;16.322;2022-07-29T04:38:10;20.60;99.90
18266;DHT22;9259;48.194;16.322;2022-07-29T04:40:38;20.60;99.90
18266;DHT22;9259;48.194;16.322;2022-07-29T04:43:05;20.60;99.90
18266;DHT22;9259;48.194;16.322;2022-07-29T04:45:33;20.80;99.90
18266;DHT22;9259;48.194;16.322;2022-07-29T04:48:01;21.10;99.90
18266;DHT22;9259;48.194;16.322;2022-07-29T04:50:29;21.10;99.90
18266;DHT22;9259;48.194;16.322;2022-07-29T04:52:56;21.30;99.90
18266;DHT22;9259;48.194;16.322;2022-07-29T04:55:26;21.50;99.90
18266;DHT22;9259;48.194;16.322;2022-07-29T04:57:53;21.60;99.90
18266;DHT22;9259;48.194;16.322;2022-07-29T05:00:21;21.70;99.90
18266;DHT22;9259;48.194;16.322;2022-07-29T05:02:51;21.90;99.90
18266;DHT22;9259;48.194;16.322;2022-07-29T05:05:19;22.10;99.90
18266;DHT22;9259;48.194;16.322;2022-07-29T05:07:46;22.10;99.90
18266;DHT22;9259;48.194;16.322;2022-07-29T05:10:14;22.00;99.90
18266;DHT22;9259;48.194;16.322;2022-07-29T05:12:43;22.00;99.90
18266;DHT22;9259;48.194;16.322;2022-07-29T05:15:11;22.10;99.90
18266;DHT22;9259;48.194;16.322;2022-07-29T05:17:39;22.10;99.90
18266;DHT22;9259;48.194;16.322;2022-07-29T05:20:08;22.20;99.90
18266;DHT22;9259;48.194;16.322;2022-07-29T05:22:36;22.30;99.90
18266;DHT22;9259;48.194;16.322;2022-07-29T05:25:05;22.30;99.90
18266;DHT22;9259;48.194;16.322;2022-07-29T05:27:35;22.10;99.90
18266;DHT22;9259;48.194;16.322;2022-07-29T05:30:06;22.00;99.90
18266;DHT22;9259;48.194;16.322;2022-07-29T05:32:34;22.20;99.90
18266;DHT22;9259;48.194;16.322;2022-07-29T05:35:02;22.30;99.90
18266;DHT22;9259;48.194;16.322;2022-07-29T05:37:30;22.40;99.90
18266;DHT22;9259;48.194;16.322;2022-07-29T05:39:58;22.60;99.90
18266;DHT22;9259;48.194;16.322;2022-07-29T05:42:26;22.60;99.90
18266;DHT22;9259;48.194;16.322;2022-07-29T05:44:55;22.70;99.90
18266;DHT22;9259;48.194;16.322;2022-07-29T05:47:25;22.70;99.90
18266;DHT22;9259;48.194;16.322;2022-07-29T05:49:53;22.60;99.90
18266;DHT22;9259;48.194;16.322;2022-07-29T05:52:21;22.60;99.90
18266;DHT22;9259;48.194;16.322;2022-07-29T05:54:49;22.70;99.90
18266;DHT22;9259;48.194;16.322;2022-07-29T05:57:17;23.30;99.90
18266;DHT22;9259;48.194;16.322;2022-07-29T05:59:45;23.60;99.90
18266;DHT22;9259;48.194;16.322;2022-07-29T06:02:14;23.60;99.90
18266;DHT22;9259;48.194;16.322;2022-07-29T06:04:47;23.60;99.90
18266;DHT22;9259;48.194;16.322;2022-07-29T06:07:15;23.80;99.90
18266;DHT22;9259;48.194;16.322;2022-07-29T06:09:43;23.80;99.90
18266;DHT22;9259;48.194;16.322;2022-07-29T06:12:11;23.90;99.90
18266;DHT22;9259;48.194;16.322;2022-07-29T06:14:39;24.00;99.90
18266;DHT22;9259;48.194;16.322;2022-07-29T06:17:07;24.30;99.90
18266;DHT22;9259;48.194;16.322;2022-07-29T06:19:35;24.70;99.90
18266;DHT22;9259;48.194;16.322;2022-07-29T06:22:04;24.60;99.90
18266;DHT22;9259;48.194;16.322;2022-07-29T06:24:33;24.20;99.90
18266;DHT22;9259;48.194;16.322;2022-07-29T06:27:07;24.20;99.90
18266;DHT22;9259;48.194;16.322;2022-07-29T06:29:36;24.20;99.90
18266;DHT22;9259;48.194;16.322;2022-07-29T06:32:04;24.20;99.90
18266;DHT22;9259;48.194;16.322;2022-07-29T06:34:33;24.30;99.90
18266;DHT22;9259;48.194;16.322;2022-07-29T06:37:00;24.70;99.90
18266;DHT22;9259;48.194;16.322;2022-07-29T06:39:35;24.90;99.90
18266;DHT22;9259;48.194;16.322;2022-07-29T06:42:04;25.00;99.90
18266;DHT22;9259;48.194;16.322;2022-07-29T06:44:32;25.20;99.90
18266;DHT22;9259;48.194;16.322;2022-07-29T06:47:01;25.20;99.90
18266;DHT22;9259;48.194;16.322;2022-07-29T06:49:29;25.10;99.90
18266;DHT22;9259;48.194;16.322;2022-07-29T06:51:57;24.90;99.90
18266;DHT22;9259;48.194;16.322;2022-07-29T06:54:26;24.80;99.90
18266;DHT22;9259;48.194;16.322;2022-07-29T06:56:54;25.00;99.90
18266;DHT22;9259;48.194;16.322;2022-07-29T06:59:21;25.20;99.90
18266;DHT22;9259;48.194;16.322;2022-07-29T07:01:49;25.20;99.90
18266;DHT22;9259;48.194;16.322;2022-07-29T07:04:17;25.20;99.90
18266;DHT22;9259;48.194;16.322;2022-07-29T07:06:45;25.00;99.90
18266;DHT22;9259;48.194;16.322;2022-07-29T07:09:13;24.90;99.90
18266;DHT22;9259;48.194;16.322;2022-07-29T07:11:42;24.50;99.90
18266;DHT22;9259;48.194;16.322;2022-07-29T07:14:09;24.00;99.90
18266;DHT22;9259;48.194;16.322;2022-07-29T07:16:37;23.90;99.90
18266;DHT22;9259;48.194;16.322;2022-07-29T07:19:05;23.50;99.90
18266;DHT22;9259;48.194;16.322;2022-07-29T07:21:33;23.70;99.90
18266;DHT22;9259;48.194;16.322;2022-07-29T07:24:01;23.80;99.90
18266;DHT22;9259;48.194;16.322;2022-07-29T07:26:30;24.00;99.90
18266;DHT22;9259;48.194;16.322;2022-07-29T07:28:59;24.40;99.90
18266;DHT22;9259;48.194;16.322;2022-07-29T07:31:27;24.70;99.90
18266;DHT22;9259;48.194;16.322;2022-07-29T07:33:55;25.10;99.90
18266;DHT22;9259;48.194;16.322;2022-07-29T07:36:24;25.50;99.90
18266;DHT22;9259;48.194;16.322;2022-07-29T07:38:52;25.90;99.90
18266;DHT22;9259;48.194;16.322;2022-07-29T07:41:19;26.10;99.90
18266;DHT22;9259;48.194;16.322;2022-07-29T07:43:48;26.40;99.90
18266;DHT22;9259;48.194;16.322;2022-07-29T07:46:17;26.50;99.90
18266;DHT22;9259;48.194;16.322;2022-07-29T07:48:45;26.40;99.90
18266;DHT22;9259;48.194;16.322;2022-07-29T07:51:16;26.00;99.90
18266;DHT22;9259;48.194;16.322;2022-07-29T07:53:44;26.00;99.90
18266;DHT22;9259;48.194;16.322;2022-07-29T07:56:15;26.00;99.90
18266;DHT22;9259;48.194;16.322;2022-07-29T07:58:43;25.90;99.90
18266;DHT22;9259;48.194;16.322;2022-07-29T08:01:11;25.90;99.90
18266;DHT22;9259;48.194;16.322;2022-07-29T08:03:40;26.10;99.90
18266;DHT22;9259;48.194;16.322;2022-07-29T08:06:08;26.40;99.90
18266;DHT22;9259;48.194;16.322;2022-07-29T08:08:36;26.60;99.90
18266;DHT22;9259;48.194;16.322;2022-07-29T08:13:37;27.10;99.90
18266;DHT22;9259;48.194;16.322;2022-07-29T08:16:05;27.70;99.90
18266;DHT22;9259;48.194;16.322;2022-07-29T08:18:49;27.50;99.90
18266;DHT22;9259;48.194;16.322;2022-07-29T08:21:17;27.30;99.90
18266;DHT22;9259;48.194;16.322;2022-07-29T08:23:45;27.30;99.90
18266;DHT22;9259;48.194;16.322;2022-07-29T08:36:13;28.00;99.90
18266;DHT22;9259;48.194;16.322;2022-07-29T08:38:41;29.60;99.90
18266;DHT22;9259;48.194;16.322;2022-07-29T08:41:09;30.10;99.90
18266;DHT22;9259;48.194;16.322;2022-07-29T08:43:37;30.20;99.90
18266;DHT22;9259;48.194;16.322;2022-07-29T08:46:08;31.20;99.90
18266;DHT22;9259;48.194;16.322;2022-07-29T08:48:36;32.20;99.90
18266;DHT22;9259;48.194;16.322;2022-07-29T08:51:05;31.20;99.90
18266;DHT22;9259;48.194;16.322;2022-07-29T08:53:36;30.90;99.90
18266;DHT22;9259;48.194;16.322;2022-07-29T08:56:04;30.90;99.90
18266;DHT22;9259;48.194;16.322;2022-07-29T08:58:34;30.10;99.90
18266;DHT22;9259;48.194;16.322;2022-07-29T09:01:02;29.60;99.90
18266;DHT22;9259;48.194;16.322;2022-07-29T09:03:32;29.50;99.90
18266;DHT22;9259;48.194;16.322;2022-07-29T09:06:02;29.60;99.90
18266;DHT22;9259;48.194;16.322;2022-07-29T09:08:31;29.70;99.90
18266;DHT22;9259;48.194;16.322;2022-07-29T09:11:02;29.50;99.90
18266;DHT22;9259;48.194;16.322;2022-07-29T09:13:30;29.30;99.90
18266;DHT22;9259;48.194;16.322;2022-07-29T09:15:58;29.70;99.90
18266;DHT22;9259;48.194;16.322;2022-07-29T09:18:36;30.10;99.90
18266;DHT22;9259;48.194;16.322;2022-07-29T09:21:06;30.20;99.90
18266;DHT22;9259;48.194;16.322;2022-07-29T09:24:06;31.30;99.90
18266;DHT22;9259;48.194;16.322;2022-07-29T09:26:37;31.10;99.90
18266;DHT22;9259;48.194;16.322;2022-07-29T09:29:11;31.60;99.90
18266;DHT22;9259;48.194;16.322;2022-07-29T09:31:41;32.40;99.90
18266;DHT22;9259;48.194;16.322;2022-07-29T09:34:13;32.70;99.90
18266;DHT22;9259;48.194;16.322;2022-07-29T09:36:44;32.80;99.90
18266;DHT22;9259;48.194;16.322;2022-07-29T09:39:14;32.60;99.90
18266;DHT22;9259;48.194;16.322;2022-07-29T09:41:49;32.50;99.90
18266;DHT22;9259;48.194;16.322;2022-07-29T09:44:19;32.00;99.90
18266;DHT22;9259;48.194;16.322;2022-07-29T09:46:58;31.70;99.90
18266;DHT22;9259;48.194;16.322;2022-07-29T09:49:32;31.20;99.90
18266;DHT22;9259;48.194;16.322;2022-07-29T09:52:04;30.30;99.90
18266;DHT22;9259;48.194;16.322;2022-07-29T09:54:33;30.30;99.90
18266;DHT22;9259;48.194;16.322;2022-07-29T09:57:07;30.10;99.90
18266;DHT22;9259;48.194;16.322;2022-07-29T09:59:39;30.10;99.90
18266;DHT22;9259;48.194;16.322;2022-07-29T10:02:28;29.90;99.90
18266;DHT22;9259;48.194;16.322;2022-07-29T10:04:57;29.90;99.90
18266;DHT22;9259;48.194;16.322;2022-07-29T10:07:25;30.80;99.90
18266;DHT22;9259;48.194;16.322;2022-07-29T10:09:54;31.70;99.90
18266;DHT22;9259;48.194;16.322;2022-07-29T10:12:25;31.40;99.90
18266;DHT22;9259;48.194;16.322;2022-07-29T10:14:53;32.20;99.90
18266;DHT22;9259;48.194;16.322;2022-07-29T10:17:22;32.10;99.90
18266;DHT22;9259;48.194;16.322;2022-07-29T10:19:50;32.10;99.90
18266;DHT22;9259;48.194;16.322;2022-07-29T10:22:18;32.30;99.90
18266;DHT22;9259;48.194;16.322;2022-07-29T10:24:46;33.20;99.90
18266;DHT22;9259;48.194;16.322;2022-07-29T10:27:14;33.90;99.40
18266;DHT22;9259;48.194;16.322;2022-07-29T10:29:43;33.90;98.90
18266;DHT22;9259;48.194;16.322;2022-07-29T10:32:20;34.00;99.60
18266;DHT22;9259;48.194;16.322;2022-07-29T10:35:15;33.60;98.80
18266;DHT22;9259;48.194;16.322;2022-07-29T10:38:21;33.20;99.00
18266;DHT22;9259;48.194;16.322;2022-07-29T10:41:13;33.90;98.40
18266;DHT22;9259;48.194;16.322;2022-07-29T10:43:58;32.90;98.30
18266;DHT22;9259;48.194;16.322;2022-07-29T10:46:34;32.70;98.60
18266;DHT22;9259;48.194;16.322;2022-07-29T10:49:08;32.60;99.40
18266;DHT22;9259;48.194;16.322;2022-07-29T10:52:03;32.60;99.20
18266;DHT22;9259;48.194;16.322;2022-07-29T10:54:47;32.00;99.30
18266;DHT22;9259;48.194;16.322;2022-07-29T10:57:22;32.20;99.80
18266;DHT22;9259;48.194;16.322;2022-07-29T11:00:29;32.00;99.20
18266;DHT22;9259;48.194;16.322;2022-07-29T11:03:01;31.60;99.90
18266;DHT22;9259;48.194;16.322;2022-07-29T11:05:29;31.60;99.90
18266;DHT22;9259;48.194;16.322;2022-07-29T11:08:17;31.50;99.90
18266;DHT22;9259;48.194;16.322;2022-07-29T11:10:47;31.30;99.90
18266;DHT22;9259;48.194;16.322;2022-07-29T11:13:50;31.60;99.90
18266;DHT22;9259;48.194;16.322;2022-07-29T11:16:20;31.60;99.90
18266;DHT22;9259;48.194;16.322;2022-07-29T11:19:20;32.60;99.90
18266;DHT22;9259;48.194;16.322;2022-07-29T11:21:49;33.30;99.30
18266;DHT22;9259;48.194;16.322;2022-07-29T11:24:21;32.90;98.30
18266;DHT22;9259;48.194;16.322;2022-07-29T11:27:10;31.90;98.70
18266;DHT22;9259;48.194;16.322;2022-07-29T11:29:54;31.40;99.80
18266;DHT22;9259;48.194;16.322;2022-07-29T11:32:24;31.40;99.40
18266;DHT22;9259;48.194;16.322;2022-07-29T11:35:13;31.40;99.20
18266;DHT22;9259;48.194;16.322;2022-07-29T11:37:41;31.60;99.70
18266;DHT22;9259;48.194;16.322;2022-07-29T11:40:14;31.80;99.50
18266;DHT22;9259;48.194;16.322;2022-07-29T11:42:51;31.50;99.50
18266;DHT22;9259;48.194;16.322;2022-07-29T11:45:26;32.40;98.90
18266;DHT22;9259;48.194;16.322;2022-07-29T11:48:17;33.20;98.00
18266;DHT22;9259;48.194;16.322;2022-07-29T11:55:43;34.00;97.40
18266;DHT22;9259;48.194;16.322;2022-07-29T11:58:11;36.00;94.60
18266;DHT22;9259;48.194;16.322;2022-07-29T12:00:40;36.20;93.70
18266;DHT22;9259;48.194;16.322;2022-07-29T12:03:10;36.40;94.50
18266;DHT22;9259;48.194;16.322;2022-07-29T12:05:39;35.70;92.90
18266;DHT22;9259;48.194;16.322;2022-07-29T12:08:18;35.90;94.50
18266;DHT22;9259;48.194;16.322;2022-07-29T12:10:49;35.60;93.40
18266;DHT22;9259;48.194;16.322;2022-07-29T12:13:19;35.60;93.20
18266;DHT22;9259;48.194;16.322;2022-07-29T12:15:55;35.80;92.30
18266;DHT22;9259;48.194;16.322;2022-07-29T12:18:25;35.80;93.10
18266;DHT22;9259;48.194;16.322;2022-07-29T12:20:57;35.40;92.80
18266;DHT22;9259;48.194;16.322;2022-07-29T12:23:27;35.50;93.90
18266;DHT22;9259;48.194;16.322;2022-07-29T12:25:55;35.10;93.80
18266;DHT22;9259;48.194;16.322;2022-07-29T12:28:23;34.40;95.10
18266;DHT22;9259;48.194;16.322;2022-07-29T12:30:51;34.90;93.70
18266;DHT22;9259;48.194;16.322;2022-07-29T12:33:21;34.20;94.70
18266;DHT22;9259;48.194;16.322;2022-07-29T12:35:52;33.60;94.70
18266;DHT22;9259;48.194;16.322;2022-07-29T12:38:21;33.00;95.30
18266;DHT22;9259;48.194;16.322;2022-07-29T12:40:52;32.90;95.50
18266;DHT22;9259;48.194;16.322;2022-07-29T12:43:24;32.80;96.60
18266;DHT22;9259;48.194;16.322;2022-07-29T12:45:55;32.70;95.40
18266;DHT22;9259;48.194;16.322;2022-07-29T12:48:34;31.70;96.60
18266;DHT22;9259;48.194;16.322;2022-07-29T12:51:03;31.50;97.10
18266;DHT22;9259;48.194;16.322;2022-07-29T12:53:32;31.20;97.30
18266;DHT22;9259;48.194;16.322;2022-07-29T12:56:03;30.80;97.60
18266;DHT22;9259;48.194;16.322;2022-07-29T12:58:33;30.50;98.10
18266;DHT22;9259;48.194;16.322;2022-07-29T13:01:10;30.50;98.30
18266;DHT22;9259;48.194;16.322;2022-07-29T13:03:46;30.70;98.60
18266;DHT22;9259;48.194;16.322;2022-07-29T13:06:37;30.30;98.40
18266;DHT22;9259;48.194;16.322;2022-07-29T13:09:08;30.00;99.10
18266;DHT22;9259;48.194;16.322;2022-07-29T13:11:40;29.70;99.50
18266;DHT22;9259;48.194;16.322;2022-07-29T13:14:09;29.50;99.90
18266;DHT22;9259;48.194;16.322;2022-07-29T13:17:04;29.50;99.90
18266;DHT22;9259;48.194;16.322;2022-07-29T13:19:35;29.50;99.90
18266;DHT22;9259;48.194;16.322;2022-07-29T13:22:04;29.40;99.90
18266;DHT22;9259;48.194;16.322;2022-07-29T13:24:32;29.10;99.90
18266;DHT22;9259;48.194;16.322;2022-07-29T13:27:02;28.50;99.90
18266;DHT22;9259;48.194;16.322;2022-07-29T13:29:30;28.20;99.90
18266;DHT22;9259;48.194;16.322;2022-07-29T13:31:58;27.80;99.90
18266;DHT22;9259;48.194;16.322;2022-07-29T13:34:25;27.60;99.90
18266;DHT22;9259;48.194;16.322;2022-07-29T13:36:53;27.40;99.90
18266;DHT22;9259;48.194;16.322;2022-07-29T13:39:22;27.10;99.90
18266;DHT22;9259;48.194;16.322;2022-07-29T13:41:49;27.10;99.90
18266;DHT22;9259;48.194;16.322;2022-07-29T13:44:20;27.10;99.90
18266;DHT22;9259;48.194;16.322;2022-07-29T13:46:47;26.70;99.90
18266;DHT22;9259;48.194;16.322;2022-07-29T13:49:16;26.20;99.90
18266;DHT22;9259;48.194;16.322;2022-07-29T13:51:44;25.80;99.90
18266;DHT22;9259;48.194;16.322;2022-07-29T13:54:11;25.60;99.90
18266;DHT22;9259;48.194;16.322;2022-07-29T13:56:39;25.30;99.90
18266;DHT22;9259;48.194;16.322;2022-07-29T13:59:07;25.00;99.90
18266;DHT22;9259;48.194;16.322;2022-07-29T14:01:37;24.90;99.90
18266;DHT22;9259;48.194;16.322;2022-07-29T14:04:08;24.70;99.90
18266;DHT22;9259;48.194;16.322;2022-07-29T14:06:37;24.40;99.90
18266;DHT22;9259;48.194;16.322;2022-07-29T14:09:05;24.20;99.90
18266;DHT22;9259;48.194;16.322;2022-07-29T14:11:34;23.90;99.90
18266;DHT22;9259;48.194;16.322;2022-07-29T14:14:04;23.60;99.90
18266;DHT22;9259;48.194;16.322;2022-07-29T14:16:32;23.30;99.90
18266;DHT22;9259;48.194;16.322;2022-07-29T14:24:04;23.10;99.90
18266;DHT22;9259;48.194;16.322;2022-07-29T14:26:32;22.40;99.90
18266;DHT22;9259;48.194;16.322;2022-07-29T14:29:00;22.30;99.90
18266;DHT22;9259;48.194;16.322;2022-07-29T14:31:28;22.30;99.90
18266;DHT22;9259;48.194;16.322;2022-07-29T14:48:51;22.20;99.90
18266;DHT22;9259;48.194;16.322;2022-07-29T14:51:19;21.70;99.90
18266;DHT22;9259;48.194;16.322;2022-07-29T14:53:48;21.60;99.90
18266;DHT22;9259;48.194;16.322;2022-07-29T14:56:16;21.40;99.90
18266;DHT22;9259;48.194;16.322;2022-07-29T14:58:44;21.50;99.90
18266;DHT22;9259;48.194;16.322;2022-07-29T15:01:12;21.50;99.90
18266;DHT22;9259;48.194;16.322;2022-07-29T15:03:40;21.70;99.90
18266;DHT22;9259;48.194;16.322;2022-07-29T15:06:08;21.80;99.90
18266;DHT22;9259;48.194;16.322;2022-07-29T15:08:35;22.20;99.90
18266;DHT22;9259;48.194;16.322;2022-07-29T15:11:05;22.40;99.90
18266;DHT22;9259;48.194;16.322;2022-07-29T15:13:33;22.80;99.90
18266;DHT22;9259;48.194;16.322;2022-07-29T15:16:00;23.00;99.90
18266;DHT22;9259;48.194;16.322;2022-07-29T15:18:28;23.20;99.90
18266;DHT22;9259;48.194;16.322;2022-07-29T15:20:56;23.30;99.90
18266;DHT22;9259;48.194;16.322;2022-07-29T15:23:26;23.50;99.90
18266;DHT22;9259;48.194;16.322;2022-07-29T15:25:55;23.60;99.90
18266;DHT22;9259;48.194;16.322;2022-07-29T15:28:24;23.60;99.90
18266;DHT22;9259;48.194;16.322;2022-07-29T15:30:52;23.80;99.90
18266;DHT22;9259;48.194;16.322;2022-07-29T15:33:20;23.90;99.90
18266;DHT22;9259;48.194;16.322;2022-07-29T15:35:48;23.90;99.90
18266;DHT22;9259;48.194;16.322;2022-07-29T15:38:16;24.10;99.90
18266;DHT22;9259;48.194;16.322;2022-07-29T15:40:44;24.20;99.90
18266;DHT22;9259;48.194;16.322;2022-07-29T15:43:12;24.10;99.90
18266;DHT22;9259;48.194;16.322;2022-07-29T15:45:42;24.10;99.90
18266;DHT22;9259;48.194;16.322;2022-07-29T15:48:32;24.00;99.90
18266;DHT22;9259;48.194;16.322;2022-07-29T15:51:00;23.80;99.90
18266;DHT22;9259;48.194;16.322;2022-07-29T15:53:28;23.70;99.90
18266;DHT22;9259;48.194;16.322;2022-07-29T15:55:55;23.90;99.90
18266;DHT22;9259;48.194;16.322;2022-07-29T15:58:23;24.00;99.90
18266;DHT22;9259;48.194;16.322;2022-07-29T16:00:52;24.10;99.90
18266;DHT22;9259;48.194;16.322;2022-07-29T16:03:20;23.90;99.90
18266;DHT22;9259;48.194;16.322;2022-07-29T16:05:48;24.10;99.90
18266;DHT22;9259;48.194;16.322;2022-07-29T16:08:16;24.10;99.90
18266;DHT22;9259;48.194;16.322;2022-07-29T16:10:43;24.20;99.90
18266;DHT22;9259;48.194;16.322;2022-07-29T16:13:11;24.30;99.90
18266;DHT22;9259;48.194;16.322;2022-07-29T16:15:39;24.40;99.90
18266;DHT22;9259;48.194;16.322;2022-07-29T16:18:08;24.10;99.90
18266;DHT22;9259;48.194;16.322;2022-07-29T16:20:36;23.90;99.90
18266;DHT22;9259;48.194;16.322;2022-07-29T16:23:04;23.80;99.90
18266;DHT22;9259;48.194;16.322;2022-07-29T16:25:32;24.10;99.90
18266;DHT22;9259;48.194;16.322;2022-07-29T16:28:00;24.50;99.90
18266;DHT22;9259;48.194;16.322;2022-07-29T16:30:28;24.60;99.90